Time;durP1;ratioP1;P1;durP2;ratioP2;P2;SDS_P1;SDS_P2;PMS_P1;PMS_P2;Temp;Humidity;BMP_temperature;BMP_pressure;BME280_temperature;BME280_humidity;BME280_pressure;Samples;Min_cycle;Max_cycle;Signal;HPM_P1;HPM_P2
2023/08/12 00:00:23;;;;;;;1.90;1.80;;;;;;;19.40;91.96;100323.40;84224;282;136980;-61
2023/08/12 00:02:25;;;;;;;2.20;1.00;;;;;;;19.38;92.01;100322.73;84285;282;25250;-62
2023/08/12 00:04:27;;;;;;;2.80;0.90;;;;;;;19.38;91.69;100320.98;84337;282;137125;-62
2023/08/12 00:06:29;;;;;;;3.40;1.10;;;;;;;19.34;92.12;100320.48;84257;282;25285;-56
2023/08/12 00:08:31;;;;;;;1.50;1.00;;;;;;;19.29;92.41;100323.81;84072;282;138996;-62
2023/08/12 00:10:33;;;;;;;2.00;1.30;;;;;;;19.27;92.72;100320.33;84193;282;25370;-62
2023/08/12 00:12:35;;;;;;;1.40;1.30;;;;;;;19.23;92.69;100317.08;84126;283;137270;-64
2023/08/12 00:14:37;;;;;;;1.50;1.40;;;;;;;19.22;92.82;100320.46;84278;283;25299;-64
2023/08/12 00:16:39;;;;;;;3.00;1.60;;;;;;;19.18;93.27;100314.62;84160;283;137382;-62
2023/08/12 00:18:40;;;;;;;1.30;1.10;;;;;;;19.19;93.42;100318.26;84271;283;24206;-61
2023/08/12 00:20:42;;;;;;;6.20;1.60;;;;;;;19.20;93.16;100315.48;84148;282;137132;-62
2023/08/12 00:22:44;;;;;;;1.60;1.50;;;;;;;19.18;93.19;100317.11;84161;283;26713;-60
2023/08/12 00:24:46;;;;;;;3.20;2.00;;;;;;;19.15;93.47;100318.90;84104;282;136996;-61
2023/08/12 00:26:47;;;;;;;6.60;5.90;;;;;;;19.12;93.52;100313.18;84312;274;24106;-60
2023/08/12 00:28:50;;;;;;;13.10;11.90;;;;;;;19.08;93.83;100311.24;84182;282;137260;-60
2023/08/12 00:30:52;;;;;;;12.90;11.70;;;;;;;19.07;93.94;100315.27;84431;282;22598;-58
2023/08/12 00:32:53;;;;;;;7.60;7.00;;;;;;;19.05;94.06;100308.21;84159;282;137494;-61
2023/08/12 00:34:56;;;;;;;6.30;5.80;;;;;;;19.04;94.18;100308.56;84274;282;24447;-59
2023/08/12 00:36:57;;;;;;;5.90;5.40;;;;;;;19.01;94.25;100306.58;84248;283;137404;-59
2023/08/12 00:39:00;;;;;;;7.90;6.30;;;;;;;19.00;94.35;100307.58;84301;283;22594;-60
2023/08/12 00:41:04;;;;;;;6.20;5.70;;;;;;;18.98;94.54;100309.28;84255;282;137545;-60
2023/08/12 00:43:06;;;;;;;7.20;6.60;;;;;;;18.99;94.56;100312.96;84327;282;24273;-60
2023/08/12 00:45:12;;;;;;;8.50;7.60;;;;;;;18.96;94.92;100313.36;84238;282;137112;-62
2023/08/12 00:47:15;;;;;;;8.30;7.60;;;;;;;18.95;94.93;100312.68;84592;283;25223;-57
2023/08/12 00:49:18;;;;;;;8.90;6.70;;;;;;;18.95;94.91;100311.55;84304;282;136937;-59
2023/08/12 00:51:20;;;;;;;8.10;4.00;;;;;;;18.95;95.03;100309.48;84295;282;25462;-62
2023/08/12 00:53:22;;;;;;;3.10;3.00;;;;;;;18.96;94.85;100313.83;84275;282;137126;-60
2023/08/12 00:55:24;;;;;;;2.40;2.20;;;;;;;18.95;94.56;100315.13;84241;283;25235;-63
2023/08/12 00:57:26;;;;;;;3.30;1.50;;;;;;;18.94;94.79;100317.09;84108;282;137371;-62
2023/08/12 00:59:28;;;;;;;5.40;1.80;;;;;;;18.93;94.61;100316.70;84204;282;22564;-62
2023/08/12 01:01:33;;;;;;;3.40;2.10;;;;;;;18.92;94.53;100316.58;84246;282;137313;-64
2023/08/12 01:03:37;;;;;;;2.60;1.60;;;;;;;18.93;94.31;100319.34;84200;283;24133;-62
2023/08/12 01:05:40;;;;;;;1.60;1.40;;;;;;;18.91;94.41;100315.98;84336;282;137033;-61
2023/08/12 01:07:46;;;;;;;1.60;1.40;;;;;;;18.89;94.36;100314.10;84399;282;24104;-60
2023/08/12 01:09:48;;;;;;;3.00;1.40;;;;;;;18.88;94.05;100314.34;84275;282;137274;-61
2023/08/12 01:12:05;;;;;;;2.70;1.50;;;;;;;18.85;93.95;100314.95;84369;282;25289;-62
2023/08/12 01:14:25;;;;;;;3.60;1.70;;;;;;;18.83;93.88;100315.67;84331;282;22698;-58
2023/08/12 01:16:32;;;;;;;3.50;1.80;;;;;;;18.80;93.74;100315.96;84173;282;136997;-66
2023/08/12 01:19:43;;;;;;;1.60;1.50;;;;;;;18.62;95.00;100312.03;82914;307;547151;-60
2023/08/12 01:21:49;;;;;;;2.30;2.00;;;;;;;18.62;94.74;100315.70;83487;294;136766;-61
2023/08/12 01:23:51;;;;;;;1.20;1.10;;;;;;;18.62;94.57;100318.30;83597;297;22690;-63
2023/08/12 01:25:53;;;;;;;1.50;1.20;;;;;;;18.59;94.51;100317.91;83497;297;137014;-61
2023/08/12 01:27:56;;;;;;;4.50;1.10;;;;;;;18.60;94.45;100318.27;83865;292;22582;-63
2023/08/12 01:29:58;;;;;;;2.20;1.70;;;;;;;18.59;94.43;100315.05;83777;291;136135;-64
2023/08/12 01:32:14;;;;;;;6.30;1.40;;;;;;;18.55;94.52;100312.61;83833;292;25225;-59
2023/08/12 01:34:30;;;;;;;1.70;1.60;;;;;;;18.56;94.40;100307.23;83797;288;404627;-61
2023/08/12 01:36:36;;;;;;;1.70;1.60;;;;;;;18.56;94.26;100306.63;83767;288;137549;-63
2023/08/12 01:38:39;;;;;;;1.60;1.20;;;;;;;18.55;94.25;100304.67;83770;291;22586;-61
2023/08/12 01:40:43;;;;;;;1.80;1.70;;;;;;;18.52;94.47;100307.58;83799;259;136851;-60
2023/08/12 01:42:45;;;;;;;2.30;1.80;;;;;;;18.48;94.94;100307.35;84028;290;22757;-63
2023/08/12 01:44:49;;;;;;;3.90;1.60;;;;;;;18.46;94.92;100303.42;83908;289;137652;-59
2023/08/12 01:46:51;;;;;;;1.70;1.60;;;;;;;18.40;95.00;100305.42;83789;289;24066;-62
2023/08/12 01:48:53;;;;;;;3.90;1.90;;;;;;;18.39;95.25;100304.53;83767;289;136681;-55
2023/08/12 01:50:54;;;;;;;1.60;1.50;;;;;;;18.35;95.24;100300.14;83801;289;25163;-60
2023/08/12 01:52:57;;;;;;;3.10;1.70;;;;;;;18.32;94.77;100301.77;83751;289;136607;-59
2023/08/12 01:54:59;;;;;;;3.10;2.00;;;;;;;18.30;94.48;100302.36;83814;290;22587;-59
2023/08/12 01:57:05;;;;;;;3.70;2.20;;;;;;;18.26;94.23;100301.97;83768;289;136759;-61
2023/08/12 01:59:07;;;;;;;1.90;1.80;;;;;;;18.23;93.96;100306.07;83796;291;24132;-61
2023/08/12 02:01:09;;;;;;;3.90;2.30;;;;;;;18.21;93.77;100307.90;83672;280;137650;-61
2023/08/12 02:03:10;;;;;;;2.10;1.80;;;;;;;18.19;93.53;100312.63;83830;288;25146;-62
2023/08/12 02:05:13;;;;;;;1.80;1.60;;;;;;;18.19;93.46;100312.88;83762;288;138460;-61
2023/08/12 02:07:15;;;;;;;5.00;2.90;;;;;;;18.16;93.40;100312.16;85837;290;22265;-61
2023/08/12 02:09:17;;;;;;;1.50;1.40;;;;;;;18.13;93.48;100310.23;83678;290;138257;-65
2023/08/12 02:11:19;;;;;;;2.10;1.90;;;;;;;18.08;93.47;100315.58;83820;289;24890;-60
2023/08/12 02:13:23;;;;;;;2.10;2.00;;;;;;;18.04;93.82;100316.02;83786;289;136457;-61
2023/08/12 02:15:24;;;;;;;2.60;2.20;;;;;;;18.04;93.75;100315.70;83867;290;22584;-64
2023/08/12 02:17:26;;;;;;;2.90;2.30;;;;;;;18.04;93.78;100319.86;83653;290;138173;-64
2023/08/12 02:19:28;;;;;;;2.30;2.00;;;;;;;18.03;93.86;100323.36;83922;290;25255;-61
2023/08/12 02:21:29;;;;;;;2.50;2.30;;;;;;;18.01;94.06;100322.50;83799;289;136981;-61
2023/08/12 02:23:31;;;;;;;2.90;2.30;;;;;;;17.97;94.36;100327.98;83993;289;22574;-58
2023/08/12 02:25:33;;;;;;;5.00;2.50;;;;;;;17.94;94.70;100320.52;83749;290;136764;-64
2023/08/12 02:27:35;;;;;;;2.30;1.80;;;;;;;17.89;94.79;100314.80;83846;290;22557;-62
2023/08/12 02:29:37;;;;;;;3.40;2.60;;;;;;;17.93;94.91;100323.61;83871;288;136781;-61
2023/08/12 02:31:39;;;;;;;2.40;2.30;;;;;;;17.93;95.28;100318.91;83908;288;25040;-61
2023/08/12 02:33:40;;;;;;;3.60;2.40;;;;;;;17.92;95.38;100316.20;83772;288;137996;-60
2023/08/12 02:35:42;;;;;;;2.90;2.20;;;;;;;17.91;95.66;100320.90;83886;290;26511;-61
2023/08/12 02:37:44;;;;;;;3.00;2.00;;;;;;;17.88;96.12;100321.20;83894;289;136870;-60
2023/08/12 02:39:47;;;;;;;2.30;2.20;;;;;;;17.87;96.73;100320.15;83896;289;22576;-63
2023/08/12 02:41:49;;;;;;;2.30;2.10;;;;;;;17.86;97.08;100323.16;83825;288;138174;-61
2023/08/12 02:43:51;;;;;;;5.60;2.10;;;;;;;17.86;97.09;100320.84;83890;288;25078;-61
2023/08/12 02:45:53;;;;;;;8.00;2.90;;;;;;;17.86;97.38;100321.64;83881;287;136585;-61
2023/08/12 02:47:54;;;;;;;3.00;2.50;;;;;;;17.86;97.55;100320.24;84017;288;24197;-62
2023/08/12 02:49:58;;;;;;;3.90;2.50;;;;;;;17.88;97.66;100318.34;83964;288;136587;-63
2023/08/12 02:52:00;;;;;;;3.80;2.40;;;;;;;17.88;97.43;100320.08;84010;289;22658;-63
2023/08/12 02:54:02;;;;;;;2.50;2.40;;;;;;;17.89;97.78;100319.98;83799;290;136079;-64
2023/08/12 02:56:04;;;;;;;2.80;2.20;;;;;;;17.90;97.84;100322.12;83923;288;137145;-61
2023/08/12 02:58:06;;;;;;;3.20;2.30;;;;;;;17.91;97.67;100322.34;83901;289;25218;-62
2023/08/12 03:00:09;;;;;;;3.00;2.80;;;;;;;17.92;97.62;100321.92;83925;288;136759;-62
2023/08/12 03:02:10;;;;;;;3.10;2.90;;;;;;;17.90;97.62;100314.45;84063;288;25137;-64
2023/08/12 03:04:15;;;;;;;3.40;3.20;;;;;;;17.89;97.56;100312.98;83910;289;138653;-61
2023/08/12 03:06:17;;;;;;;2.80;2.50;;;;;;;17.87;97.54;100315.14;83916;288;24588;-59
2023/08/12 03:08:19;;;;;;;2.80;2.60;;;;;;;17.83;98.21;100314.11;83806;289;137596;-60
2023/08/12 03:10:22;;;;;;;2.90;2.70;;;;;;;17.84;98.14;100318.13;84117;288;22571;-61
2023/08/12 03:12:24;;;;;;;3.80;3.00;;;;;;;17.84;98.10;100320.98;83690;289;136822;-61
2023/08/12 03:14:26;;;;;;;3.00;2.80;;;;;;;17.82;98.14;100321.04;83927;287;22639;-62
2023/08/12 03:16:29;;;;;;;3.10;2.90;;;;;;;17.80;98.50;100322.19;83859;289;138088;-60
2023/08/12 03:18:31;;;;;;;3.50;3.30;;;;;;;17.78;98.68;100322.41;83947;289;22651;-59
2023/08/12 03:20:37;;;;;;;6.60;3.50;;;;;;;17.77;99.08;100321.47;83985;287;137241;-61
2023/08/12 03:22:39;;;;;;;3.20;3.00;;;;;;;17.77;99.00;100322.55;83994;287;22702;-60
2023/08/12 03:24:41;;;;;;;3.20;3.00;;;;;;;17.76;99.27;100320.41;83880;287;136817;-58
2023/08/12 03:26:44;;;;;;;3.30;3.00;;;;;;;17.76;99.61;100322.79;84023;288;23451;-62
2023/08/12 03:28:45;;;;;;;4.00;3.10;;;;;;;17.74;99.81;100324.11;83786;288;137245;-57
2023/08/12 03:30:51;;;;;;;3.50;3.20;;;;;;;17.76;99.97;100324.41;83993;288;22740;-61
2023/08/12 03:32:54;;;;;;;;;;;;;;;17.79;99.96;100326.36;83827;289;136952;-61
2023/08/12 03:34:56;;;;;;;5.00;3.10;;;;;;;17.80;99.91;100326.71;84098;288;24943;-62
2023/08/12 03:36:58;;;;;;;3.60;3.30;;;;;;;17.82;100.00;100324.86;83885;287;137045;-62
2023/08/12 03:39:01;;;;;;;4.10;3.20;;;;;;;17.95;100.00;100329.17;84074;287;22579;-56
2023/08/12 03:41:03;;;;;;;3.70;3.40;;;;;;;18.17;99.51;100325.70;83910;288;138391;-64
2023/08/12 03:43:06;;;;;;;2.70;2.50;;;;;;;18.52;98.04;100323.88;84068;288;22552;-60
2023/08/12 03:45:08;;;;;;;3.30;3.10;;;;;;;18.86;95.97;100324.68;83923;288;136460;-59
2023/08/12 03:47:10;;;;;;;4.10;2.90;;;;;;;19.11;93.80;100325.17;84021;287;22621;-57
2023/08/12 03:49:13;;;;;;;3.20;3.00;;;;;;;19.28;91.87;100318.71;84081;287;137108;-57
2023/08/12 03:51:15;;;;;;;4.60;3.10;;;;;;;19.37;90.26;100317.35;84043;288;22646;-60
2023/08/12 03:53:17;;;;;;;3.20;3.10;;;;;;;19.37;89.42;100323.79;83871;286;138296;-64
2023/08/12 03:55:19;;;;;;;3.80;3.20;;;;;;;19.26;88.96;100322.81;84116;286;22660;-59
2023/08/12 03:57:21;;;;;;;3.30;3.10;;;;;;;19.13;89.41;100324.13;84080;286;136988;-59
2023/08/12 03:59:23;;;;;;;3.40;3.10;;;;;;;19.00;90.39;100327.31;84108;286;22555;-60
2023/08/12 04:01:25;;;;;;;3.00;2.80;;;;;;;18.97;91.25;100324.77;83771;287;136526;-63
2023/08/12 04:03:26;;;;;;;3.00;2.70;;;;;;;18.99;91.27;100317.02;83845;287;22578;-60
2023/08/12 04:05:28;;;;;;;3.60;3.10;;;;;;;19.19;90.32;100325.89;83944;286;136705;-65
2023/08/12 04:07:31;;;;;;;3.50;3.30;;;;;;;19.35;89.56;100324.88;84053;285;22565;-63
2023/08/12 04:09:33;;;;;;;6.30;3.40;;;;;;;19.58;88.44;100324.58;83941;263;136863;-61
2023/08/12 04:11:35;;;;;;;4.70;3.60;;;;;;;19.86;86.47;100323.44;84035;285;25328;-61
2023/08/12 04:13:36;;;;;;;3.40;3.10;;;;;;;20.20;84.68;100322.34;83993;285;136317;-62
2023/08/12 04:15:38;;;;;;;3.90;3.40;;;;;;;20.55;82.34;100319.16;84126;285;22684;-59
2023/08/12 04:17:40;;;;;;;3.70;3.30;;;;;;;20.94;80.29;100315.49;83861;287;137964;-63
2023/08/12 04:19:43;;;;;;;4.40;2.90;;;;;;;21.27;78.42;100315.42;84092;288;22554;-61
2023/08/12 04:21:46;;;;;;;3.00;2.60;;;;;;;21.64;77.01;100313.70;83889;285;137842;-63
2023/08/12 04:23:48;;;;;;;3.20;3.00;;;;;;;22.00;73.21;100314.64;84203;282;22548;-61
2023/08/12 04:25:52;;;;;;;3.50;3.20;;;;;;;22.23;72.04;100322.17;84023;281;137285;-63
2023/08/12 04:27:56;;;;;;;3.10;2.70;;;;;;;22.31;70.22;100325.59;84339;281;22678;-61
2023/08/12 04:29:58;;;;;;;3.40;3.20;;;;;;;22.30;70.25;100323.36;84328;270;136875;-62
2023/08/12 04:32:01;;;;;;;7.20;3.40;;;;;;;22.32;70.26;100326.08;84225;283;23037;-65
2023/08/12 04:34:03;;;;;;;3.80;3.50;;;;;;;22.38;69.84;100326.05;84211;284;22562;-64
2023/08/12 04:36:06;;;;;;;2.80;2.70;;;;;;;22.48;69.76;100325.74;84178;282;136416;-62
2023/08/12 04:38:08;;;;;;;2.90;2.70;;;;;;;22.67;68.64;100320.73;84135;283;22719;-60
2023/08/12 04:40:11;;;;;;;3.60;3.00;;;;;;;22.87;68.00;100321.83;84128;283;138047;-63
2023/08/12 04:42:13;;;;;;;2.60;2.50;;;;;;;23.07;66.76;100317.95;84185;283;22595;-59
2023/08/12 04:44:15;;;;;;;3.10;2.40;;;;;;;23.25;65.45;100321.32;84009;282;137955;-63
2023/08/12 04:46:17;;;;;;;2.30;2.20;;;;;;;23.24;65.16;100323.89;84247;282;24808;-60
2023/08/12 04:48:20;;;;;;;2.70;2.50;;;;;;;23.13;65.70;100327.96;83970;282;138200;-61
2023/08/12 04:50:21;;;;;;;3.00;2.80;;;;;;;23.00;65.58;100324.95;84053;283;25353;-60
2023/08/12 04:52:24;;;;;;;5.40;2.70;;;;;;;22.90;66.31;100323.52;83888;283;136196;-59
2023/08/12 04:54:26;;;;;;;2.60;2.40;;;;;;;22.83;66.65;100323.14;84236;282;23141;-62
2023/08/12 04:56:30;;;;;;;5.90;2.70;;;;;;;22.75;66.70;100322.27;84063;282;136551;-65
2023/08/12 04:58:32;;;;;;;3.00;2.90;;;;;;;22.66;66.98;100319.75;84146;284;22601;-61
2023/08/12 05:00:34;;;;;;;2.30;2.20;;;;;;;22.53;67.33;100322.11;84191;283;137825;-61
2023/08/12 05:02:36;;;;;;;3.70;2.30;;;;;;;22.34;68.15;100326.62;84195;283;22653;-63
2023/08/12 05:04:38;;;;;;;5.00;3.10;;;;;;;22.15;68.79;100330.82;84028;283;137089;-62
2023/08/12 05:06:40;;;;;;;3.20;2.00;;;;;;;21.98;69.47;100322.28;84066;284;22554;-60
2023/08/12 05:08:42;;;;;;;2.90;2.70;;;;;;;22.04;69.93;100330.77;84100;283;136610;-62
2023/08/12 05:10:46;;;;;;;2.50;2.30;;;;;;;22.06;69.76;100327.14;84123;283;22549;-66
2023/08/12 05:12:50;;;;;;;3.20;2.50;;;;;;;22.11;69.81;100329.06;84146;283;137653;-58
2023/08/12 05:14:51;;;;;;;3.00;2.80;;;;;;;22.13;69.47;100326.03;84074;283;25255;-62
2023/08/12 05:16:53;;;;;;;3.40;3.10;;;;;;;22.01;69.94;100326.41;83968;283;137675;-60
2023/08/12 05:18:55;;;;;;;3.10;2.90;;;;;;;21.82;70.34;100323.88;84264;284;22635;-60
2023/08/12 05:20:58;;;;;;;3.30;3.10;;;;;;;21.54;71.03;100316.23;84015;283;137031;-58
2023/08/12 05:23:00;;;;;;;3.50;3.30;;;;;;;21.38;72.35;100326.63;84171;284;22556;-58
2023/08/12 05:25:02;;;;;;;3.70;2.90;;;;;;;21.23;73.01;100326.20;83958;282;138124;-59
2023/08/12 05:27:04;;;;;;;3.40;2.90;;;;;;;21.05;73.72;100327.35;84183;282;25380;-64
2023/08/12 05:29:06;;;;;;;2.80;2.60;;;;;;;20.86;75.08;100322.62;84041;282;136502;-61
2023/08/12 05:31:08;;;;;;;4.30;3.30;;;;;;;20.65;76.43;100327.64;84057;282;25148;-57
2023/08/12 05:33:09;;;;;;;3.40;3.20;;;;;;;20.53;77.41;100330.17;83946;282;137945;-61
2023/08/12 05:35:11;;;;;;;3.30;3.20;;;;;;;20.41;79.10;100332.06;84117;283;22644;-60
2023/08/12 05:37:14;;;;;;;3.30;3.00;;;;;;;20.43;79.05;100333.59;83982;283;138022;-61
2023/08/12 05:39:15;;;;;;;3.90;3.50;;;;;;;20.36;79.27;100326.26;84020;283;25244;-62
2023/08/12 05:41:17;;;;;;;4.10;3.80;;;;;;;20.29;79.91;100330.23;84100;283;139969;-62
2023/08/12 05:43:19;;;;;;;3.80;3.50;;;;;;;20.21;80.37;100327.45;84125;283;25226;-61
2023/08/12 05:45:21;;;;;;;3.90;3.70;;;;;;;20.12;80.48;100330.30;84060;283;136923;-58
2023/08/12 05:47:23;;;;;;;3.80;3.60;;;;;;;19.93;81.80;100332.23;84218;283;22551;-63
2023/08/12 05:49:25;;;;;;;3.20;2.90;;;;;;;19.81;82.29;100328.02;84021;283;137277;-61
2023/08/12 05:51:26;;;;;;;4.40;4.00;;;;;;;19.78;82.86;100329.70;84103;283;24100;-63
2023/08/12 05:53:32;;;;;;;4.10;3.60;;;;;;;19.69;83.75;100330.09;84215;283;137063;-62
2023/08/12 05:55:37;;;;;;;3.40;3.20;;;;;;;19.56;84.83;100328.50;84704;284;25298;-62
2023/08/12 05:57:39;;;;;;;3.60;3.50;;;;;;;19.54;85.45;100331.01;84117;284;136903;-62
2023/08/12 05:59:41;;;;;;;3.50;3.20;;;;;;;19.62;85.31;100336.48;84120;283;22700;-62
2023/08/12 06:01:42;;;;;;;3.70;3.40;;;;;;;19.75;84.61;100332.84;83960;283;138271;-61
2023/08/12 06:03:44;;;;;;;4.50;3.20;;;;;;;19.78;85.07;100332.61;84104;282;22545;-66
2023/08/12 06:05:47;;;;;;;3.30;3.10;;;;;;;19.92;84.74;100328.97;83989;281;136869;-64
2023/08/12 06:07:48;;;;;;;6.10;3.80;;;;;;;20.07;84.14;100326.07;84341;282;24196;-59
2023/08/12 06:09:50;;;;;;;3.40;3.20;;;;;;;20.26;83.19;100325.61;84105;282;137104;-60
2023/08/12 06:11:52;;;;;;;5.70;3.60;;;;;;;20.56;82.41;100319.98;84209;282;22874;-60
2023/08/12 06:13:54;;;;;;;4.00;3.20;;;;;;;20.92;80.41;100315.19;84091;282;136061;-62
2023/08/12 06:15:56;;;;;;;4.50;3.60;;;;;;;21.21;78.35;100319.56;84123;282;23067;-61
2023/08/12 06:18:00;;;;;;;3.50;3.20;;;;;;;21.50;76.44;100321.41;84155;282;136235;-62
2023/08/12 06:20:02;;;;;;;3.20;3.10;;;;;;;21.75;75.54;100320.00;84681;283;24402;-61
2023/08/12 06:22:04;;;;;;;4.90;3.30;;;;;;;22.13;73.79;100320.11;84337;282;25198;-65
2023/08/12 06:24:06;;;;;;;2.90;2.70;;;;;;;22.50;72.04;100319.48;84072;282;136599;-61
2023/08/12 06:26:08;;;;;;;5.20;3.40;;;;;;;22.78;69.61;100301.94;84498;282;22595;-60
2023/08/12 06:28:10;;;;;;;6.40;3.20;;;;;;;23.12;67.78;100308.17;83955;282;137783;-62
2023/08/12 06:30:13;;;;;;;2.90;2.70;;;;;;;23.33;66.61;100306.25;84198;282;22579;-62
2023/08/12 06:32:15;;;;;;;3.80;3.10;;;;;;;23.53;65.62;100308.98;84162;284;136490;-61
2023/08/12 06:34:16;;;;;;;3.90;2.60;;;;;;;23.72;64.39;100304.64;84210;273;22668;-61
2023/08/12 06:36:18;;;;;;;2.50;2.40;;;;;;;23.84;64.06;100306.75;84095;281;136510;-64
2023/08/12 06:38:20;;;;;;;4.70;3.10;;;;;;;24.01;62.75;100307.50;84218;281;24137;-62
2023/08/12 06:40:22;;;;;;;2.30;2.20;;;;;;;24.21;62.05;100301.05;84120;281;136408;-63
2023/08/12 06:42:24;;;;;;;2.50;2.40;;;;;;;24.28;61.25;100301.66;84223;281;23748;-64
2023/08/12 06:44:26;;;;;;;2.40;2.30;;;;;;;24.24;61.40;100300.48;84055;281;136307;-68
2023/08/12 06:46:28;;;;;;;4.80;2.80;;;;;;;24.21;61.41;100300.02;84128;283;22582;-64
2023/08/12 06:48:30;;;;;;;4.80;2.90;;;;;;;24.10;61.45;100304.86;84449;283;137342;-63
2023/08/12 06:50:33;;;;;;;3.70;3.00;;;;;;;23.87;62.46;100305.27;84186;282;22549;-65
2023/08/12 06:52:34;;;;;;;4.10;2.80;;;;;;;23.50;63.95;100302.30;84225;282;136467;-65
2023/08/12 06:54:36;;;;;;;3.30;2.80;;;;;;;23.23;65.07;100304.97;84144;282;22564;-63
2023/08/12 06:56:38;;;;;;;4.10;2.90;;;;;;;23.03;66.45;100308.65;84078;282;137246;-62
2023/08/12 06:58:40;;;;;;;3.60;2.60;;;;;;;23.00;66.52;100311.95;84147;282;22687;-61
2023/08/12 07:00:42;;;;;;;7.00;3.20;;;;;;;22.89;67.45;100310.69;84024;282;137387;-65
2023/08/12 07:02:44;;;;;;;3.10;2.90;;;;;;;22.87;67.82;100307.77;84227;282;22643;-66
2023/08/12 07:04:46;;;;;;;3.70;3.20;;;;;;;22.73;68.30;100314.11;84306;281;137189;-63
2023/08/12 07:06:48;;;;;;;6.10;4.80;;;;;;;22.64;68.56;100313.18;84207;281;22569;-64
2023/08/12 07:08:50;;;;;;;3.30;3.10;;;;;;;22.53;69.23;100314.94;84280;282;136151;-66
2023/08/12 07:10:52;;;;;;;3.40;3.00;;;;;;;22.42;70.06;100318.19;84254;281;25178;-64
2023/08/12 07:12:54;;;;;;;4.80;3.40;;;;;;;22.37;70.77;100311.38;84131;281;136275;-63
2023/08/12 07:14:56;;;;;;;2.90;2.80;;;;;;;22.33;71.09;100310.11;84219;281;26174;-65
2023/08/12 07:16:58;;;;;;;4.50;3.00;;;;;;;22.24;71.61;100313.17;84299;282;136902;-65
2023/08/12 07:19:00;;;;;;;5.00;2.50;;;;;;;22.17;72.37;100312.31;83926;284;22576;-64
2023/08/12 07:21:02;;;;;;;3.10;2.80;;;;;;;22.13;72.10;100313.70;84025;282;136235;-63
2023/08/12 07:23:03;;;;;;;3.40;2.80;;;;;;;22.10;72.53;100312.55;84070;282;25251;-65
2023/08/12 07:25:06;;;;;;;2.70;2.60;;;;;;;22.07;72.93;100318.91;84039;282;136219;-65
2023/08/12 07:27:07;;;;;;;3.60;2.80;;;;;;;22.08;72.78;100314.95;84271;282;25392;-65
2023/08/12 07:29:10;;;;;;;3.20;3.00;;;;;;;22.10;72.68;100317.55;84034;283;136429;-62
2023/08/12 07:31:11;;;;;;;3.90;2.90;;;;;;;22.11;72.71;100321.41;84136;283;22553;-63
2023/08/12 07:33:13;;;;;;;2.80;2.60;;;;;;;22.16;72.72;100320.73;84117;282;136476;-65
2023/08/12 07:35:15;;;;;;;1.60;1.50;;;;;;;22.24;72.53;100322.39;84162;282;25262;-65
2023/08/12 07:37:17;;;;;;;2.70;2.60;;;;;;;22.29;72.52;100312.76;84267;282;136121;-60
2023/08/12 07:39:19;;;;;;;3.30;2.80;;;;;;;22.52;72.46;100315.81;84078;282;23396;-63
2023/08/12 07:41:22;;;;;;;3.10;2.90;;;;;;;22.76;71.49;100312.20;83929;283;136939;-66
2023/08/12 07:43:24;;;;;;;2.60;2.30;;;;;;;22.98;69.41;100307.11;84149;281;22660;-64
2023/08/12 07:45:26;;;;;;;2.10;1.90;;;;;;;23.13;68.44;100303.83;84055;281;136333;-63
2023/08/12 07:47:29;;;;;;;2.10;1.90;;;;;;;23.29;68.46;100306.53;84070;281;22765;-65
2023/08/12 07:49:31;;;;;;;2.10;1.90;;;;;;;23.46;67.93;100305.09;83975;282;136274;-64
2023/08/12 07:51:34;;;;;;;2.00;1.90;;;;;;;23.61;67.07;100299.02;84020;282;25285;-65
2023/08/12 07:53:36;;;;;;;2.00;1.70;;;;;;;23.73;67.13;100302.58;83988;283;136074;-63
2023/08/12 07:55:38;;;;;;;2.40;2.20;;;;;;;23.88;66.15;100299.33;84078;283;22606;-64
2023/08/12 07:57:39;;;;;;;5.30;2.40;;;;;;;24.02;65.02;100300.80;84022;283;136623;-65
2023/08/12 07:59:41;;;;;;;2.00;1.30;;;;;;;24.15;63.24;100303.41;84057;283;25261;-68
2023/08/12 08:01:43;;;;;;;2.60;1.40;;;;;;;24.15;62.22;100305.48;83995;282;136507;-64
2023/08/12 08:03:45;;;;;;;0.90;0.90;;;;;;;24.09;62.41;100304.96;84157;282;22545;-65
2023/08/12 08:05:48;;;;;;;1.70;1.40;;;;;;;24.02;62.34;100302.94;83906;282;137082;-66
2023/08/12 08:07:50;;;;;;;1.50;1.30;;;;;;;23.92;61.61;100298.52;84429;282;22572;-65
2023/08/12 08:09:52;;;;;;;1.80;1.30;;;;;;;23.81;61.10;100298.81;84049;282;136392;-61
2023/08/12 08:11:54;;;;;;;1.60;1.30;;;;;;;23.73;61.31;100304.37;84140;279;22604;-60
2023/08/12 08:13:58;;;;;;;2.80;1.70;;;;;;;23.67;61.94;100303.08;84014;282;138596;-64
2023/08/12 08:16:00;;;;;;;1.90;1.20;;;;;;;23.65;62.64;100298.95;84139;283;25229;-65
2023/08/12 08:18:04;;;;;;;3.60;1.10;;;;;;;23.65;62.13;100303.41;84003;282;137310;-69
2023/08/12 08:20:07;;;;;;;2.90;1.30;;;;;;;23.66;62.39;100308.58;84125;270;136716;-72
2023/08/12 08:22:09;;;;;;;1.70;1.50;;;;;;;23.64;62.68;100309.39;84220;282;22807;-68
2023/08/12 08:24:12;;;;;;;3.40;1.60;;;;;;;23.60;63.40;100308.37;84055;282;137916;-66
2023/08/12 08:26:15;;;;;;;1.50;1.30;;;;;;;23.60;63.64;100305.71;84134;282;22698;-65
2023/08/12 08:28:17;;;;;;;3.20;1.90;;;;;;;23.62;63.80;100299.92;84008;282;136675;-64
2023/08/12 08:30:19;;;;;;;6.60;2.20;;;;;;;23.58;63.10;100305.38;84107;282;24054;-66
2023/08/12 08:32:21;;;;;;;5.80;1.90;;;;;;;23.52;63.39;100307.90;83943;282;136409;-67
2023/08/12 08:34:22;;;;;;;1.50;1.30;;;;;;;23.50;63.53;100307.80;84112;282;22703;-66
2023/08/12 08:36:24;;;;;;;2.80;2.20;;;;;;;23.50;63.39;100303.90;84026;281;137254;-63
2023/08/12 08:38:26;;;;;;;3.40;1.60;;;;;;;23.44;63.58;100303.25;84195;281;22564;-65
2023/08/12 08:40:28;;;;;;;1.30;1.20;;;;;;;23.40;63.68;100301.55;84022;282;136483;-66
2023/08/12 08:42:31;;;;;;;4.00;1.70;;;;;;;23.42;64.15;100301.40;83980;282;22545;-62
2023/08/12 08:44:33;;;;;;;1.80;1.70;;;;;;;23.41;64.33;100301.29;84340;283;135928;-63
2023/08/12 08:46:35;;;;;;;2.60;1.80;;;;;;;23.42;64.44;100298.89;84246;281;22580;-65
2023/08/12 08:48:38;;;;;;;1.60;1.20;;;;;;;23.41;63.79;100297.64;83944;283;136654;-65
2023/08/12 08:50:42;;;;;;;6.60;1.90;;;;;;;23.37;64.74;100298.58;84110;284;22553;-66
2023/08/12 08:52:44;;;;;;;2.10;1.70;;;;;;;23.40;64.81;100295.41;84129;282;136357;-68
2023/08/12 08:54:46;;;;;;;1.90;1.80;;;;;;;23.43;65.02;100298.72;84695;270;22840;-68
2023/08/12 08:56:49;;;;;;;3.90;1.80;;;;;;;23.49;64.86;100298.55;83938;283;137360;-66
2023/08/12 08:59:02;;;;;;;5.10;1.60;;;;;;;23.54;64.39;100300.83;84039;282;22659;-65
2023/08/12 09:01:06;;;;;;;2.60;2.40;;;;;;;23.53;64.25;100300.55;83883;282;136368;-64
2023/08/12 09:03:10;;;;;;;2.30;2.00;;;;;;;23.53;64.31;100296.96;84046;284;26185;-66
2023/08/12 09:05:14;;;;;;;3.80;1.60;;;;;;;23.53;64.41;100298.16;83986;283;137783;-69
2023/08/12 09:07:16;;;;;;;3.30;1.50;;;;;;;23.54;64.30;100301.58;84182;283;22547;-66
2023/08/12 09:09:20;;;;;;;5.40;1.70;;;;;;;23.59;64.32;100298.70;83904;283;137785;-66
2023/08/12 09:11:23;;;;;;;1.90;1.80;;;;;;;23.67;64.29;100302.75;84153;283;22583;-64
2023/08/12 09:13:25;;;;;;;2.00;1.80;;;;;;;23.72;63.72;100300.61;83972;283;136331;-68
2023/08/12 09:15:28;;;;;;;1.90;1.50;;;;;;;23.75;63.87;100296.78;84370;283;25154;-67
2023/08/12 09:17:31;;;;;;;3.20;2.10;;;;;;;23.71;64.17;100290.06;84138;283;136816;-66
2023/08/12 09:19:34;;;;;;;5.10;1.90;;;;;;;23.81;63.69;100292.61;84959;272;23971;-65
2023/08/12 09:21:36;;;;;;;2.80;1.90;;;;;;;23.83;63.63;100295.81;83981;283;136438;-65
2023/08/12 09:23:40;;;;;;;2.60;1.60;;;;;;;23.89;62.99;100297.27;84241;283;25470;-63
2023/08/12 09:25:45;;;;;;;1.40;1.30;;;;;;;23.97;62.76;100291.67;84168;283;137333;-65
2023/08/12 09:27:46;;;;;;;1.80;1.70;;;;;;;23.97;61.97;100292.02;84129;283;25144;-68
2023/08/12 09:29:48;;;;;;;1.60;1.50;;;;;;;23.97;61.82;100289.56;83929;283;136857;-66
2023/08/12 09:31:50;;;;;;;3.90;1.60;;;;;;;23.92;62.19;100292.68;84086;283;24108;-66
2023/08/12 09:33:53;;;;;;;2.60;1.60;;;;;;;23.92;62.92;100294.66;83577;272;465509;-65